• Join FlightAware (Why Join?)
  • Login
  • US Flag 
08:10PM EDT


 

Airport Tracker/Info


-or-


 

Live Flight TrackerFlight Track Log ✈ USC105 ✈ 02-Jul-2013 ✈ KBKL - KYIP

Flight Track Log - Related Links

Times and Time Zones

All times are in EDT time to prevent confusion due to time zone crossing. See the USC105 flight status page for this flight to view local times or setup timezone preferences in your user account.

Time Position Orientation Groundspeed Altitude Reporting Facility
EDT Latitude Longitude Course Direction KTS MPH feet Rate Location/Type
11:02PM 41.5625 -81.7208 328° Northwest 134 154 2,500  Level Cleveland Center
11:03PM 41.5892 -81.7631 310° West 151 174 3,100 240 Climbing Cleveland Center
11:04PM 41.6050 -81.8300 288° West 171 197 3,100  Level Cleveland Center
11:05PM 41.6147 -81.8939 282° West 169 194 3,100 240 Level Cleveland Center
11:06PM 41.6244 -81.9553 282° West 170 196 3,700 720 Climbing Cleveland Center
11:07PM 41.6300 -82.0083 278° West 135 155 4,600 660 Climbing Cleveland Center
11:08PM 41.6333 -82.0722 274° West 153 176 5,100 180 Climbing Cleveland Center
11:09PM 41.6325 -82.1361 269° West 177 204 5,100  Level Cleveland Center
11:10PM 41.6297 -82.1972 267° West 178 205 5,100 180 Level Cleveland Center
11:11PM 41.6581 -82.2533 304° West 193 222 5,500 480 Climbing Cleveland Center
11:12PM 41.6842 -82.3097 302° West 172 198 6,100 240 Climbing Cleveland Center
11:13PM 41.7125 -82.3661 304° West 189 217 6,100  Level Cleveland Center
11:14PM 41.7450 -82.4283 305° West 200 230 6,100 -120 Level Cleveland Center
11:15PM 41.7611 -82.4622 303° West 201 231 6,000 -120 Descending Cleveland Center
11:16PM 41.7975 -82.5300 306° West 199 229 6,000  Level Cleveland Center
11:17PM 41.8256 -82.5950 300° West 199 229 6,000 -60 Level Cleveland Center
11:18PM 41.8683 -82.6439 320° Northwest 208 239 5,900  Descending Cleveland Center
11:19PM 41.9094 -82.6842 324° Northwest 193 222 6,000  Climbing Cleveland Center
11:20PM 41.9081 -82.7539 268° West 191 220 6,000  Level Cleveland Center
11:21PM 41.9108 -82.8236 273° West 188 216 6,000  Level Cleveland Center
11:22PM 41.9136 -82.8936 273° West 187 215 6,000  Level Cleveland Center
11:23PM 41.9142 -82.9689 271° West 186 214 6,000  Level Cleveland Center
11:24PM 41.9169 -83.0361 273° West 187 215 6,000  Level Cleveland Center
11:25PM 41.9156 -83.1058 268° West 188 216 6,000 -300 Level Cleveland Center
11:26PM 41.9158 -83.1839 270° West 210 242 5,400 -660 Descending Cleveland Center
11:27PM 41.9181 -83.2650 272° West 202 232 4,700 -840 Descending Cleveland Center
11:28PM 41.9392 -83.3439 290° West 224 258 3,700 -900 Descending Cleveland Center
11:29PM 41.9689 -83.4094 301° West 211 243 2,900 -360 Descending Cleveland Center
11:30PM 41.9922 -83.4747 296° West 187 215 3,000 60 Climbing Cleveland Center
11:31PM 42.0200 -83.5347 302° West 179 206 3,100  Climbing Cleveland Center
11:32PM 42.0564 -83.5783 318° Northwest 173 199 3,100 -360 Level Cleveland Center
11:33PM 42.0883 -83.6275 311° West 191 220 2,400 -480 Descending Cleveland Center
11:34PM 42.1406 -83.6300 358° North 161 185 2,100 -300 Descending Cleveland Center
11:35PM 42.1783 -83.6150 16° North 161 185 1,800 -360 Descending Cleveland Center
11:36PM 42.2064 -83.5800 43° Northeast 124 143 1,500 -300 Descending Cleveland Center
11:38PM 42.2393 -83.5310 87° East  Level Estimated
11:45PM 42.2393 -83.5310 90° East  Level Estimated
11:46PM 42.2393 -83.5310 90° East  Level Estimated